Time;durP1;ratioP1;P1;durP2;ratioP2;P2;SDS_P1;SDS_P2;PMS_P1;PMS_P2;Temp;Humidity;BMP_temperature;BMP_pressure;BME280_temperature;BME280_humidity;BME280_pressure;Samples;Min_cycle;Max_cycle;Signal;HPM_P1;HPM_P2
2021/10/07 00:00:05;;;;;;;0.50;0.40;;;12.60;99.90;;;;;;5062997;28;20442;-80
2021/10/07 00:02:31;;;;;;;1.60;0.93;;;12.50;99.90;;;;;;5058553;28;20447;-82
2021/10/07 00:04:58;;;;;;;0.50;0.40;;;12.50;99.90;;;;;;5054028;28;20198;-82
2021/10/07 00:07:25;;;;;;;0.50;0.30;;;12.50;99.90;;;;;;5063356;28;20716;-83
2021/10/07 00:09:52;;;;;;;0.50;0.40;;;12.50;99.90;;;;;;5063550;28;20464;-83
2021/10/07 00:12:20;;;;;;;0.50;0.33;;;12.50;99.90;;;;;;5063022;28;20879;-81
2021/10/07 00:14:46;;;;;;;1.00;1.00;;;12.50;99.90;;;;;;5063091;28;20448;-83
2021/10/07 00:17:13;;;;;;;0.50;0.40;;;12.50;99.90;;;;;;5063404;28;20457;-82
2021/10/07 00:19:40;;;;;;;0.50;0.30;;;12.50;99.90;;;;;;5062355;28;20438;-82
2021/10/07 00:22:06;;;;;;;0.50;0.30;;;12.50;99.90;;;;;;5060802;28;20549;-82
2021/10/07 00:24:33;;;;;;;0.50;0.40;;;12.50;99.90;;;;;;5061946;28;20468;-82
2021/10/07 00:27:00;;;;;;;0.50;0.30;;;12.60;99.90;;;;;;5053799;28;20491;-82
2021/10/07 00:29:40;;;;;;;0.50;0.40;;;12.50;99.90;;;;;;5062509;28;20471;-83
2021/10/07 00:32:10;;;;;;;0.50;0.30;;;12.50;99.90;;;;;;5061345;28;20473;-84
2021/10/07 00:34:48;;;;;;;0.50;0.30;;;12.50;99.90;;;;;;5062117;28;20456;-82
2021/10/07 00:37:24;;;;;;;0.50;0.40;;;12.50;99.90;;;;;;5061962;28;20215;-83
2021/10/07 00:39:50;;;;;;;0.50;0.40;;;12.50;99.90;;;;;;5061572;28;20439;-82
2021/10/07 00:42:17;;;;;;;0.50;0.30;;;12.40;99.90;;;;;;5061388;28;20471;-83
2021/10/07 00:44:46;;;;;;;0.50;0.30;;;12.40;99.90;;;;;;5060447;28;20455;-82
2021/10/07 00:47:14;;;;;;;0.50;0.30;;;12.40;99.90;;;;;;5059934;28;20993;-81
2021/10/07 00:49:41;;;;;;;0.50;0.40;;;12.30;99.90;;;;;;5061178;28;20438;-83
2021/10/07 00:52:08;;;;;;;0.50;0.40;;;12.30;99.90;;;;;;5051715;28;20437;-82
2021/10/07 00:54:35;;;;;;;0.50;0.40;;;12.30;99.90;;;;;;5060976;28;20449;-82
2021/10/07 00:57:05;;;;;;;0.50;0.40;;;12.20;99.90;;;;;;5052153;28;20499;-82
2021/10/07 00:59:33;;;;;;;0.50;0.40;;;12.10;99.90;;;;;;5061591;28;20444;-82
2021/10/07 01:02:05;;;;;;;0.50;0.37;;;11.90;99.90;;;;;;5060802;28;20442;-83
2021/10/07 01:04:32;;;;;;;0.50;0.40;;;11.80;99.90;;;;;;5054630;28;20430;-83
2021/10/07 01:06:59;;;;;;;0.50;0.40;;;11.80;99.90;;;;;;5059633;28;20461;-82
2021/10/07 01:09:26;;;;;;;0.50;0.40;;;11.70;99.90;;;;;;5060382;28;20457;-83
2021/10/07 01:11:53;;;;;;;0.50;0.40;;;11.60;99.90;;;;;;5052479;28;20445;-83
2021/10/07 01:14:42;;;;;;;0.50;0.40;;;11.50;99.90;;;;;;5059827;28;20512;-80
2021/10/07 01:17:11;;;;;;;0.50;0.40;;;11.40;99.90;;;;;;5059894;28;20221;-81
2021/10/07 01:19:40;;;;;;;0.50;0.40;;;11.40;99.90;;;;;;5059057;28;20444;-81
2021/10/07 01:22:07;;;;;;;0.50;0.40;;;11.40;99.90;;;;;;5058596;28;20217;-81
2021/10/07 01:24:35;;;;;;;0.50;0.40;;;11.40;99.90;;;;;;5058304;28;20668;-83
2021/10/07 01:27:02;;;;;;;0.50;0.33;;;11.40;99.90;;;;;;5058502;28;20646;-81
2021/10/07 01:29:28;;;;;;;0.50;0.40;;;11.30;99.90;;;;;;5058408;28;20449;-82
2021/10/07 01:31:56;;;;;;;0.50;0.40;;;11.40;99.90;;;;;;5059639;28;20438;-82
2021/10/07 01:34:24;;;;;;;0.50;0.40;;;11.30;99.90;;;;;;5058489;28;20212;-79
2021/10/07 01:36:52;;;;;;;0.50;0.40;;;11.30;99.90;;;;;;5059926;28;20227;-83
2021/10/07 01:39:20;;;;;;;0.50;0.40;;;11.20;99.90;;;;;;5059358;28;20191;-82
2021/10/07 01:41:47;;;;;;;0.50;0.40;;;11.10;99.90;;;;;;5062087;28;20208;-81
2021/10/07 01:44:13;;;;;;;0.50;0.40;;;11.00;99.90;;;;;;5064570;28;20197;-83
2021/10/07 01:46:40;;;;;;;0.50;0.40;;;11.00;99.90;;;;;;5062973;28;20472;-82
2021/10/07 01:49:08;;;;;;;0.50;0.40;;;10.90;99.90;;;;;;5061583;28;20672;-83
2021/10/07 01:51:35;;;;;;;0.50;0.40;;;10.80;99.90;;;;;;5058884;28;20590;-82
2021/10/07 01:54:03;;;;;;;0.50;0.40;;;10.80;99.90;;;;;;5059631;28;20219;-83
2021/10/07 01:56:30;;;;;;;0.50;0.40;;;10.80;99.90;;;;;;5058692;28;20231;-82
2021/10/07 01:58:57;;;;;;;0.50;0.40;;;10.70;99.90;;;;;;5058950;28;20196;-82
2021/10/07 02:01:24;;;;;;;0.50;0.40;;;10.70;99.90;;;;;;5059234;28;20205;-82
2021/10/07 02:03:51;;;;;;;0.50;0.40;;;10.60;99.90;;;;;;5058487;28;20249;-82
2021/10/07 02:06:18;;;;;;;0.50;0.40;;;10.60;99.90;;;;;;5051338;28;20192;-82
2021/10/07 02:08:45;;;;;;;0.50;0.40;;;10.70;99.90;;;;;;5058696;28;20552;-81
2021/10/07 02:11:13;;;;;;;0.50;0.40;;;10.70;99.90;;;;;;5057927;28;20201;-82
2021/10/07 02:13:40;;;;;;;0.50;0.40;;;10.80;99.90;;;;;;5058820;28;20209;-81
2021/10/07 02:16:07;;;;;;;0.50;0.40;;;10.90;99.90;;;;;;5058698;28;20666;-83
2021/10/07 02:18:33;;;;;;;0.50;0.40;;;11.00;99.90;;;;;;5059087;28;20343;-81
2021/10/07 02:21:00;;;;;;;0.50;0.40;;;11.00;99.90;;;;;;5058191;28;20200;-81
2021/10/07 02:23:27;;;;;;;0.50;0.40;;;11.00;99.90;;;;;;5058844;28;20193;-82
2021/10/07 02:25:53;;;;;;;0.50;0.40;;;11.00;99.90;;;;;;5059524;28;20208;-82
2021/10/07 02:28:21;;;;;;;0.50;0.40;;;11.00;99.90;;;;;;5059465;28;20223;-81
2021/10/07 02:30:48;;;;;;;0.50;0.40;;;11.00;99.90;;;;;;5058326;28;20209;-82
2021/10/07 02:33:15;;;;;;;0.50;0.40;;;11.00;99.90;;;;;;5058158;28;20227;-82
2021/10/07 02:35:42;;;;;;;0.50;0.40;;;11.00;99.90;;;;;;5058716;28;20198;-81
2021/10/07 02:38:09;;;;;;;0.50;0.40;;;11.00;99.90;;;;;;5058682;28;20217;-82
2021/10/07 02:40:35;;;;;;;0.50;0.40;;;11.00;99.90;;;;;;5058362;28;20201;-81
2021/10/07 02:43:02;;;;;;;0.50;0.40;;;10.90;99.90;;;;;;5058818;28;20193;-80
2021/10/07 02:45:30;;;;;;;0.50;0.40;;;10.90;99.90;;;;;;5058808;28;20201;-82
2021/10/07 02:47:57;;;;;;;0.50;0.40;;;11.00;99.90;;;;;;5062471;28;20666;-82
2021/10/07 02:50:26;;;;;;;5.13;4.82;;;11.10;99.90;;;;;;5062042;28;20203;-82
2021/10/07 02:52:53;;;;;;;0.50;0.40;;;11.20;99.90;;;;;;5062384;28;20198;-81
2021/10/07 02:55:20;;;;;;;0.50;0.40;;;11.20;99.90;;;;;;5061870;28;20238;-81
2021/10/07 02:57:47;;;;;;;0.50;0.40;;;11.20;99.90;;;;;;5061391;28;20227;-81
2021/10/07 03:00:17;;;;;;;0.50;0.40;;;11.20;99.90;;;;;;5062029;28;20200;-79
2021/10/07 03:02:45;;;;;;;0.50;0.40;;;11.10;99.90;;;;;;5062627;28;20212;-81
2021/10/07 03:05:13;;;;;;;0.50;0.40;;;11.00;99.90;;;;;;5050963;28;20460;-82
2021/10/07 03:07:40;;;;;;;0.50;0.40;;;11.00;99.90;;;;;;5042170;28;20288;-82
2021/10/07 03:10:08;;;;;;;0.50;0.40;;;10.90;99.90;;;;;;5042874;28;20202;-82
2021/10/07 03:12:34;;;;;;;0.95;0.95;;;10.90;99.90;;;;;;5042968;28;20201;-82
2021/10/07 03:15:01;;;;;;;0.50;0.40;;;10.80;99.90;;;;;;5044586;28;20216;-82
2021/10/07 03:17:28;;;;;;;0.50;0.40;;;10.70;99.90;;;;;;5041625;28;20221;-82
2021/10/07 03:19:56;;;;;;;0.50;0.40;;;10.60;99.90;;;;;;5039399;28;20198;-83
2021/10/07 03:22:24;;;;;;;0.50;0.40;;;10.60;99.90;;;;;;5040540;28;20202;-83
2021/10/07 03:24:51;;;;;;;0.50;0.40;;;10.50;99.90;;;;;;5040827;28;20194;-82
2021/10/07 03:27:18;;;;;;;0.50;0.40;;;10.50;99.90;;;;;;5040501;28;20760;-83
2021/10/07 03:29:45;;;;;;;0.50;0.40;;;10.40;99.90;;;;;;5040311;28;20198;-84
2021/10/07 03:32:11;;;;;;;0.50;0.40;;;10.30;99.90;;;;;;5039757;28;20197;-83
2021/10/07 03:34:38;;;;;;;0.50;0.40;;;10.20;99.90;;;;;;5041305;28;20216;-83
2021/10/07 03:37:06;;;;;;;0.50;0.40;;;10.10;99.90;;;;;;5040347;28;20217;-83
2021/10/07 03:39:33;;;;;;;0.50;0.38;;;10.10;99.90;;;;;;5039830;28;20198;-83
2021/10/07 03:41:59;;;;;;;0.50;0.40;;;10.10;99.90;;;;;;5038840;28;20729;-81
2021/10/07 03:44:26;;;;;;;0.50;0.40;;;10.20;99.90;;;;;;5040313;28;20202;-83
2021/10/07 03:46:53;;;;;;;0.50;0.40;;;10.10;99.90;;;;;;5039730;28;20217;-83
2021/10/07 03:49:20;;;;;;;0.50;0.40;;;10.10;99.90;;;;;;5040055;28;20205;-83
2021/10/07 03:51:46;;;;;;;0.50;0.40;;;10.10;99.90;;;;;;5038469;28;20197;-83
2021/10/07 03:54:14;;;;;;;0.50;0.40;;;10.20;99.90;;;;;;5038767;28;20213;-83
2021/10/07 03:56:41;;;;;;;0.50;0.40;;;10.10;99.90;;;;;;5039743;28;20228;-83
2021/10/07 03:59:08;;;;;;;0.50;0.40;;;10.20;99.90;;;;;;5046446;28;20196;-83
2021/10/07 04:01:34;;;;;;;0.50;0.40;;;10.20;99.90;;;;;;5056312;28;20182;-80
2021/10/07 04:04:01;;;;;;;0.50;0.40;;;10.20;99.90;;;;;;5057041;28;20252;-82
2021/10/07 04:06:28;;;;;;;0.50;0.40;;;10.30;99.90;;;;;;5057790;28;20257;-82
2021/10/07 04:08:54;;;;;;;1.50;0.98;;;10.40;99.90;;;;;;5057674;28;20256;-81
2021/10/07 04:11:22;;;;;;;0.50;0.40;;;10.50;99.90;;;;;;5056314;28;20210;-81
2021/10/07 04:13:49;;;;;;;0.50;0.40;;;10.50;99.90;;;;;;5057384;28;20231;-81
2021/10/07 04:16:16;;;;;;;0.50;0.40;;;10.40;99.90;;;;;;5058133;28;20201;-80
2021/10/07 04:18:44;;;;;;;0.50;0.40;;;10.30;99.90;;;;;;5057755;28;20177;-81
2021/10/07 04:21:11;;;;;;;0.50;0.40;;;10.20;99.90;;;;;;5048208;28;20284;-80
2021/10/07 04:23:39;;;;;;;0.50;0.40;;;10.20;99.90;;;;;;5045647;28;20685;-80
2021/10/07 04:26:07;;;;;;;0.50;0.40;;;10.40;99.90;;;;;;5044289;28;20202;-80
2021/10/07 04:28:36;;;;;;;0.50;0.40;;;10.40;99.90;;;;;;5041412;28;20206;-81
2021/10/07 04:31:03;;;;;;;0.90;0.90;;;10.40;99.90;;;;;;5038537;28;20201;-81
2021/10/07 04:33:30;;;;;;;0.50;0.40;;;10.50;99.90;;;;;;5039234;28;20225;-80
2021/10/07 04:35:56;;;;;;;1.30;1.20;;;10.60;99.90;;;;;;5039748;28;20195;-83
2021/10/07 04:38:23;;;;;;;0.50;0.40;;;10.60;99.90;;;;;;5039559;28;20221;-83
2021/10/07 04:40:50;;;;;;;0.50;0.40;;;10.70;99.90;;;;;;5038248;28;20198;-83
2021/10/07 04:43:17;;;;;;;0.93;0.93;;;10.60;99.90;;;;;;5038656;28;20209;-82
2021/10/07 04:45:45;;;;;;;0.50;0.40;;;10.60;99.90;;;;;;5038423;28;20198;-82
2021/10/07 04:48:13;;;;;;;0.50;0.40;;;10.60;99.90;;;;;;5039110;28;20217;-81
2021/10/07 04:50:40;;;;;;;0.50;0.40;;;10.50;99.90;;;;;;5047958;28;20202;-83
2021/10/07 04:53:07;;;;;;;0.50;0.30;;;10.50;99.90;;;;;;5052596;28;20202;-83
2021/10/07 04:55:34;;;;;;;0.50;0.38;;;10.60;99.90;;;;;;5053740;28;20224;-82
2021/10/07 04:58:01;;;;;;;0.50;0.40;;;10.60;99.90;;;;;;5054183;28;20229;-84
2021/10/07 05:00:28;;;;;;;0.50;0.40;;;10.60;99.90;;;;;;5053398;28;20190;-84
2021/10/07 05:02:57;;;;;;;0.50;0.40;;;10.60;99.90;;;;;;5051419;28;20203;-82
2021/10/07 05:05:23;;;;;;;0.50;0.40;;;10.70;99.90;;;;;;5051346;28;20197;-81
2021/10/07 05:07:50;;;;;;;0.50;0.40;;;10.70;99.90;;;;;;5051989;28;20222;-83
2021/10/07 05:10:17;;;;;;;0.50;0.40;;;10.70;99.90;;;;;;5051784;28;20251;-80
2021/10/07 05:12:43;;;;;;;2.58;1.30;;;10.70;99.90;;;;;;5052626;28;20216;-82
2021/10/07 05:15:11;;;;;;;0.50;0.40;;;10.70;99.90;;;;;;5052410;28;20665;-82
2021/10/07 05:17:38;;;;;;;0.90;0.88;;;10.70;99.90;;;;;;5052327;28;20253;-82
2021/10/07 05:20:08;;;;;;;0.50;0.40;;;10.60;99.90;;;;;;5052606;28;20201;-80
2021/10/07 05:22:35;;;;;;;0.50;0.50;;;10.60;99.90;;;;;;5051659;28;20222;-82
2021/10/07 05:25:01;;;;;;;0.50;0.40;;;10.60;99.90;;;;;;5046365;28;20895;-82
2021/10/07 05:27:28;;;;;;;0.50;0.40;;;10.60;99.90;;;;;;5038708;28;20225;-83
2021/10/07 05:29:55;;;;;;;0.50;0.40;;;10.50;99.90;;;;;;5039796;28;20198;-83
2021/10/07 05:32:21;;;;;;;0.50;0.40;;;10.50;99.90;;;;;;5022005;28;20200;-81
2021/10/07 05:34:48;;;;;;;0.50;0.40;;;10.50;99.90;;;;;;5039402;28;20692;-82
2021/10/07 05:37:16;;;;;;;0.50;0.40;;;10.50;99.90;;;;;;5040239;28;20224;-82
2021/10/07 05:39:43;;;;;;;0.50;0.40;;;10.50;99.90;;;;;;5038537;28;20680;-82
2021/10/07 05:42:10;;;;;;;0.60;0.60;;;10.60;99.90;;;;;;5039398;28;20950;-83
2021/10/07 05:44:36;;;;;;;0.50;0.40;;;10.60;99.90;;;;;;5040093;28;20599;-83
2021/10/07 05:47:03;;;;;;;0.50;0.40;;;10.60;99.90;;;;;;5040874;28;20398;-83
2021/10/07 05:49:30;;;;;;;3.60;2.72;;;10.50;99.90;;;;;;5048794;28;20202;-81
2021/10/07 05:51:57;;;;;;;2.88;1.35;;;10.50;99.90;;;;;;5047910;28;20237;-81
2021/10/07 05:54:25;;;;;;;0.60;0.55;;;10.40;99.90;;;;;;5048784;28;20217;-82
2021/10/07 05:56:52;;;;;;;0.50;0.40;;;10.40;99.90;;;;;;5048190;28;20221;-82
2021/10/07 05:59:18;;;;;;;0.50;0.40;;;10.40;99.90;;;;;;5048954;28;20453;-82
2021/10/07 06:01:45;;;;;;;0.50;0.40;;;10.40;99.90;;;;;;5047956;28;20559;-83
2021/10/07 06:04:12;;;;;;;0.50;0.40;;;10.40;99.90;;;;;;5048143;28;20193;-81
2021/10/07 06:06:39;;;;;;;0.50;0.40;;;10.40;99.90;;;;;;5049289;28;20244;-82
2021/10/07 06:09:07;;;;;;;0.50;0.40;;;10.40;99.90;;;;;;5048905;28;20205;-82
2021/10/07 06:11:36;;;;;;;0.50;0.40;;;10.40;99.90;;;;;;5048892;28;20209;-82
2021/10/07 06:14:03;;;;;;;0.50;0.40;;;10.40;99.90;;;;;;5048650;28;20214;-83
2021/10/07 06:16:32;;;;;;;0.50;0.40;;;10.40;99.90;;;;;;5048347;28;20279;-82
2021/10/07 06:18:58;;;;;;;0.50;0.40;;;10.40;99.90;;;;;;5048106;28;20202;-82
2021/10/07 06:21:25;;;;;;;0.50;0.40;;;10.30;99.90;;;;;;5048504;28;20202;-83
2021/10/07 06:23:52;;;;;;;0.50;0.40;;;10.30;99.90;;;;;;5048977;28;20366;-82
2021/10/07 06:26:19;;;;;;;0.50;0.40;;;10.30;99.90;;;;;;5048159;28;20198;-82
2021/10/07 06:28:47;;;;;;;0.50;0.40;;;10.30;99.90;;;;;;5048627;28;20208;-82
2021/10/07 06:31:15;;;;;;;0.50;0.40;;;10.30;99.90;;;;;;5048173;28;20206;-82
2021/10/07 06:33:42;;;;;;;0.50;0.40;;;10.40;99.90;;;;;;5048337;28;20205;-83
2021/10/07 06:36:09;;;;;;;0.50;0.50;;;10.50;99.90;;;;;;5049841;28;20248;-82
2021/10/07 06:38:36;;;;;;;0.75;0.75;;;10.60;99.90;;;;;;5052199;28;20206;-83
2021/10/07 06:41:02;;;;;;;0.50;0.40;;;10.60;99.90;;;;;;5048191;28;20201;-82
2021/10/07 06:43:29;;;;;;;1.13;1.02;;;10.60;99.90;;;;;;5045528;28;20201;-78
2021/10/07 06:45:57;;;;;;;0.50;0.40;;;10.60;99.90;;;;;;5046664;28;20191;-82
2021/10/07 06:48:26;;;;;;;0.50;0.40;;;10.50;99.90;;;;;;5047652;28;20218;-85
2021/10/07 06:50:53;;;;;;;0.50;0.40;;;10.50;99.90;;;;;;5047104;28;20280;-81
2021/10/07 06:53:22;;;;;;;0.50;0.40;;;10.60;99.90;;;;;;5048146;28;20194;-83
2021/10/07 06:55:48;;;;;;;0.50;0.40;;;10.60;99.90;;;;;;5048568;28;20228;-81
2021/10/07 06:58:17;;;;;;;0.50;0.40;;;10.60;99.90;;;;;;5049878;28;20230;-82
2021/10/07 07:00:44;;;;;;;0.50;0.40;;;10.60;99.90;;;;;;5049603;28;20210;-82
2021/10/07 07:03:12;;;;;;;0.50;0.40;;;10.60;99.90;;;;;;5050014;28;20213;-81
2021/10/07 07:05:39;;;;;;;0.50;0.40;;;10.70;99.90;;;;;;5049311;28;20205;-81
2021/10/07 07:08:06;;;;;;;0.50;0.40;;;10.80;99.90;;;;;;5042722;28;20636;-82
2021/10/07 07:10:32;;;;;;;1.20;1.20;;;10.80;99.90;;;;;;5036393;28;20213;-82
2021/10/07 07:13:05;;;;;;;0.50;0.40;;;10.80;99.90;;;;;;5035849;28;20213;-81
2021/10/07 07:15:32;;;;;;;0.50;0.40;;;11.00;99.90;;;;;;5035818;28;20243;-82
2021/10/07 07:17:59;;;;;;;0.50;0.40;;;10.90;99.90;;;;;;5035294;28;20744;-81
2021/10/07 07:20:27;;;;;;;0.50;0.40;;;11.00;99.90;;;;;;5035590;28;20205;-82
2021/10/07 07:22:54;;;;;;;0.50;0.40;;;11.10;99.90;;;;;;5035202;28;20211;-82
2021/10/07 07:25:20;;;;;;;0.68;0.65;;;11.20;99.90;;;;;;5034662;28;20197;-82
2021/10/07 07:27:47;;;;;;;0.60;0.60;;;11.20;99.90;;;;;;5034455;28;20222;-82
2021/10/07 07:30:15;;;;;;;0.50;0.40;;;11.20;99.90;;;;;;5034242;28;20206;-81
2021/10/07 07:32:42;;;;;;;0.50;0.40;;;11.20;99.90;;;;;;5034453;28;20711;-82
2021/10/07 07:35:10;;;;;;;0.50;0.40;;;11.30;99.90;;;;;;5037469;28;20234;-81
2021/10/07 07:37:38;;;;;;;0.50;0.40;;;11.40;99.90;;;;;;5038629;28;20222;-81
2021/10/07 07:40:06;;;;;;;0.70;0.70;;;11.40;99.90;;;;;;5037211;28;20199;-80
2021/10/07 07:42:33;;;;;;;0.50;0.40;;;11.40;99.90;;;;;;5037947;28;20609;-81
2021/10/07 07:45:00;;;;;;;0.60;0.50;;;11.40;99.90;;;;;;5037184;28;20206;-81
2021/10/07 07:47:26;;;;;;;0.50;0.40;;;11.30;99.90;;;;;;5038013;28;20238;-81
2021/10/07 07:49:53;;;;;;;0.50;0.40;;;11.20;99.90;;;;;;5037127;28;20198;-81
2021/10/07 07:52:22;;;;;;;0.50;0.40;;;11.30;99.90;;;;;;5036887;28;20201;-79
2021/10/07 07:54:50;;;;;;;0.50;0.38;;;11.20;99.90;;;;;;5037236;28;20276;-81
2021/10/07 07:57:17;;;;;;;1.30;1.20;;;11.20;99.90;;;;;;5036890;28;20234;-82
2021/10/07 07:59:44;;;;;;;0.50;0.40;;;11.20;99.90;;;;;;5037401;28;20608;-81
2021/10/07 08:02:15;;;;;;;0.50;0.40;;;11.20;99.90;;;;;;5037464;28;20198;-81
2021/10/07 08:04:42;;;;;;;0.50;0.40;;;11.20;99.90;;;;;;5037606;28;20207;-81
2021/10/07 08:07:09;;;;;;;0.50;0.40;;;11.20;99.90;;;;;;5038747;28;20740;-82
2021/10/07 08:09:38;;;;;;;0.50;0.40;;;11.40;99.90;;;;;;5041864;28;20640;-82
2021/10/07 08:12:07;;;;;;;0.50;0.40;;;11.40;99.90;;;;;;5053245;28;20269;-80
2021/10/07 08:14:33;;;;;;;0.70;0.50;;;11.60;99.90;;;;;;5054608;28;20206;-81
2021/10/07 08:17:01;;;;;;;0.50;0.40;;;11.80;99.90;;;;;;5055055;28;20449;-81
2021/10/07 08:19:28;;;;;;;0.50;0.40;;;12.10;99.90;;;;;;5038390;28;20445;-81
2021/10/07 08:21:55;;;;;;;0.50;0.40;;;12.30;99.90;;;;;;5037226;28;20439;-82
2021/10/07 08:24:23;;;;;;;0.50;0.40;;;12.50;99.90;;;;;;5038416;28;20446;-80
2021/10/07 08:26:49;;;;;;;0.50;0.40;;;12.70;99.90;;;;;;5037655;28;20482;-81
2021/10/07 08:29:18;;;;;;;0.50;0.40;;;12.70;99.90;;;;;;5039064;28;20457;-79
2021/10/07 08:31:45;;;;;;;2.40;2.30;;;12.70;99.90;;;;;;5039147;28;20443;-81
2021/10/07 08:34:12;;;;;;;0.50;0.40;;;12.60;99.90;;;;;;5037439;28;20514;-81
2021/10/07 08:36:42;;;;;;;0.77;0.77;;;12.50;99.90;;;;;;5037640;28;20482;-81
2021/10/07 08:39:09;;;;;;;0.50;0.40;;;12.50;99.90;;;;;;5038270;28;20935;-82
2021/10/07 08:41:36;;;;;;;1.00;1.00;;;12.50;99.90;;;;;;5036811;28;20210;-81
2021/10/07 08:44:03;;;;;;;0.50;0.40;;;12.40;99.90;;;;;;5037024;28;20450;-80
2021/10/07 08:46:32;;;;;;;2.50;2.30;;;12.50;99.90;;;;;;5038259;28;20438;-80
2021/10/07 08:49:00;;;;;;;2.10;1.70;;;12.60;99.90;;;;;;5038912;28;20438;-80
2021/10/07 08:51:27;;;;;;;1.03;1.00;;;12.80;99.90;;;;;;5038061;28;20443;-80
2021/10/07 08:53:54;;;;;;;0.50;0.40;;;13.00;99.90;;;;;;5037847;28;20944;-81
2021/10/07 08:56:21;;;;;;;0.50;0.40;;;13.10;99.90;;;;;;5037454;28;21006;-80
2021/10/07 08:58:47;;;;;;;0.50;0.40;;;13.20;99.90;;;;;;5037969;28;20453;-81
2021/10/07 09:01:38;;;;;;;0.50;0.40;;;13.50;99.90;;;;;;5037782;28;20453;-81
2021/10/07 09:04:22;;;;;;;0.50;0.40;;;13.80;99.90;;;;;;5039136;28;20435;-81
2021/10/07 09:06:51;;;;;;;0.50;0.40;;;13.90;99.90;;;;;;5039112;28;20975;-81
2021/10/07 09:09:19;;;;;;;0.50;0.40;;;14.20;99.90;;;;;;5038408;28;20433;-81
2021/10/07 09:11:52;;;;;;;0.80;0.63;;;14.50;99.90;;;;;;5039460;28;20439;-81
2021/10/07 09:14:24;;;;;;;0.50;0.40;;;14.60;99.90;;;;;;5039160;28;20458;-81
2021/10/07 09:16:54;;;;;;;0.50;0.33;;;14.90;99.90;;;;;;5088561;22;20524;-79
2021/10/07 09:19:24;;;;;;;0.50;0.40;;;15.10;99.90;;;;;;5072873;28;20460;-79
2021/10/07 09:21:54;;;;;;;0.50;0.37;;;15.50;99.90;;;;;;5082453;28;20834;-79
2021/10/07 09:24:37;;;;;;;0.50;0.30;;;15.70;99.90;;;;;;5086299;28;20444;-79
2021/10/07 09:27:07;;;;;;;0.50;0.30;;;15.90;99.90;;;;;;5065415;28;20528;-79
2021/10/07 09:29:37;;;;;;;4.53;4.23;;;16.10;99.90;;;;;;5064958;28;20506;-79
2021/10/07 09:32:07;;;;;;;1.10;0.80;;;16.40;99.90;;;;;;5064012;28;20431;-78
2021/10/07 09:34:48;;;;;;;0.50;0.40;;;16.50;99.90;;;;;;5064185;28;20431;-79
2021/10/07 09:37:19;;;;;;;0.50;0.30;;;16.60;99.90;;;;;;5065263;28;20447;-79
2021/10/07 09:39:50;;;;;;;1.07;1.07;;;16.60;99.90;;;;;;5065009;28;20444;-76
2021/10/07 09:42:20;;;;;;;0.50;0.30;;;16.60;99.90;;;;;;5064381;28;20513;-78
2021/10/07 09:45:01;;;;;;;0.50;0.30;;;16.50;99.90;;;;;;5064574;28;20502;-79
2021/10/07 09:47:31;;;;;;;1.27;1.27;;;16.60;99.90;;;;;;5064904;28;20428;-79
2021/10/07 09:50:18;;;;;;;2.40;2.30;;;16.60;99.90;;;;;;5064516;28;20423;-78
2021/10/07 09:52:49;;;;;;;0.50;0.40;;;16.40;99.90;;;;;;5063927;28;20418;-78
2021/10/07 09:55:18;;;;;;;0.50;0.30;;;16.30;99.90;;;;;;5062975;28;20483;-79
2021/10/07 09:57:56;;;;;;;0.50;0.30;;;16.40;99.90;;;;;;5064030;28;20474;-79
2021/10/07 10:00:26;;;;;;;0.50;0.30;;;16.60;99.90;;;;;;5063932;28;20423;-79
2021/10/07 10:02:56;;;;;;;0.50;0.30;;;16.70;99.90;;;;;;5064304;28;20446;-80
2021/10/07 10:05:23;;;;;;;0.50;0.30;;;17.00;99.90;;;;;;5065374;28;20474;-78
2021/10/07 10:07:50;;;;;;;0.63;0.63;;;17.80;99.90;;;;;;5058621;28;20446;-78
2021/10/07 10:10:17;;;;;;;0.50;0.30;;;18.90;99.90;;;;;;5059497;28;20470;-77
2021/10/07 10:12:44;;;;;;;0.50;0.30;;;19.40;99.90;;;;;;5059132;28;20440;-77
2021/10/07 10:15:12;;;;;;;0.50;0.30;;;19.20;99.90;;;;;;5058884;28;20848;-78
2021/10/07 10:17:39;;;;;;;0.50;0.40;;;19.10;99.90;;;;;;5057997;28;20532;-75
2021/10/07 10:20:11;;;;;;;0.50;0.30;;;18.80;99.90;;;;;;5058299;28;20791;-77
2021/10/07 10:22:40;;;;;;;0.50;0.30;;;18.50;99.90;;;;;;5059173;28;20968;-78
2021/10/07 10:25:07;;;;;;;0.50;0.30;;;18.50;99.90;;;;;;5058701;28;20468;-78
2021/10/07 10:27:48;;;;;;;0.50;0.30;;;19.20;99.90;;;;;;5059253;28;20440;-77
2021/10/07 10:30:23;;;;;;;0.60;0.60;;;20.00;99.90;;;;;;5057697;28;20494;-78
2021/10/07 10:32:51;;;;;;;0.50;0.30;;;20.30;99.90;;;;;;5061715;28;20428;-76
2021/10/07 10:35:37;;;;;;;0.50;0.30;;;20.60;99.90;;;;;;5059526;28;20457;-78
2021/10/07 10:38:06;;;;;;;0.50;0.40;;;20.60;99.90;;;;;;5057847;28;20449;-78
2021/10/07 10:40:34;;;;;;;0.50;0.33;;;20.80;99.90;;;;;;5057754;28;20437;-79
2021/10/07 10:43:21;;;;;;;0.50;0.30;;;21.50;99.90;;;;;;5058855;28;20443;-78
2021/10/07 10:45:48;;;;;;;0.50;0.33;;;22.60;99.90;;;;;;5057560;28;20468;-80
2021/10/07 10:48:39;;;;;;;0.50;0.30;;;24.10;99.90;;;;;;5058959;28;20454;-78
2021/10/07 10:51:10;;;;;;;0.50;0.40;;;25.60;99.90;;;;;;5058017;28;20445;-78
2021/10/07 10:53:49;;;;;;;1.23;1.13;;;26.90;96.20;;;;;;5058443;28;20425;-78
2021/10/07 10:56:16;;;;;;;0.50;0.30;;;27.70;96.70;;;;;;5060728;28;20494;-78
2021/10/07 10:58:52;;;;;;;0.50;0.30;;;28.00;86.50;;;;;;5059577;28;20450;-78
2021/10/07 11:01:19;;;;;;;0.50;0.30;;;27.90;81.60;;;;;;5058624;28;20430;-78
2021/10/07 11:03:46;;;;;;;0.50;0.30;;;27.60;83.50;;;;;;5058408;28;20451;-78
2021/10/07 11:06:14;;;;;;;0.67;0.67;;;27.10;84.60;;;;;;5058562;28;20470;-78
2021/10/07 11:08:52;;;;;;;0.50;0.50;;;26.90;81.10;;;;;;5062587;28;20455;-78
2021/10/07 11:11:24;;;;;;;0.50;0.30;;;26.00;85.30;;;;;;5062739;28;20426;-78
2021/10/07 11:13:53;;;;;;;0.60;0.50;;;25.60;90.80;;;;;;5062753;28;20927;-77
2021/10/07 11:16:21;;;;;;;0.50;0.30;;;25.70;95.50;;;;;;5062316;28;20482;-79
2021/10/07 11:18:49;;;;;;;0.50;0.30;;;25.50;91.10;;;;;;5062730;28;20433;-77
2021/10/07 11:21:19;;;;;;;0.50;0.33;;;24.60;90.10;;;;;;5062506;28;20453;-78
2021/10/07 11:23:49;;;;;;;0.50;0.30;;;23.60;93.20;;;;;;5062471;28;20447;-77
2021/10/07 11:26:17;;;;;;;1.17;1.07;;;22.80;99.90;;;;;;5062200;28;20527;-78
2021/10/07 11:28:46;;;;;;;0.50;0.30;;;22.10;99.90;;;;;;5061350;28;20450;-77
2021/10/07 11:31:17;;;;;;;0.50;0.40;;;21.90;99.90;;;;;;5061106;28;20914;-77
2021/10/07 11:33:46;;;;;;;0.50;0.40;;;21.70;99.90;;;;;;5061829;28;20483;-78
2021/10/07 11:36:15;;;;;;;0.50;0.30;;;21.40;99.90;;;;;;5061571;28;20986;-78
2021/10/07 11:38:44;;;;;;;0.50;0.30;;;21.20;99.90;;;;;;5061332;28;20444;-77
2021/10/07 11:41:13;;;;;;;0.50;0.30;;;20.80;99.90;;;;;;5061303;28;20810;-78
2021/10/07 11:43:41;;;;;;;0.50;0.40;;;20.70;99.90;;;;;;5060798;28;20444;-78
2021/10/07 11:46:12;;;;;;;0.50;0.40;;;20.60;99.90;;;;;;5060658;28;20449;-78
2021/10/07 11:48:43;;;;;;;0.50;0.40;;;20.40;99.90;;;;;;5061512;28;20445;-77
2021/10/07 11:51:10;;;;;;;0.50;0.30;;;20.60;99.90;;;;;;5061157;28;20442;-78
2021/10/07 11:53:39;;;;;;;0.83;0.53;;;22.00;99.90;;;;;;5060981;28;20469;-78
2021/10/07 11:56:14;;;;;;;0.50;0.30;;;23.60;99.90;;;;;;5061249;28;20466;-79
2021/10/07 11:58:42;;;;;;;0.50;0.30;;;24.70;99.90;;;;;;5061603;28;20433;-78
2021/10/07 12:01:10;;;;;;;0.50;0.30;;;25.80;93.30;;;;;;5060303;28;20449;-78
2021/10/07 12:03:38;;;;;;;0.50;0.40;;;26.00;88.90;;;;;;5061848;28;20447;-78
2021/10/07 12:06:07;;;;;;;0.50;0.30;;;25.40;86.20;;;;;;5060944;28;20467;-77
2021/10/07 12:08:35;;;;;;;0.50;0.33;;;24.50;87.70;;;;;;5060582;28;20449;-77
2021/10/07 12:11:04;;;;;;;0.50;0.30;;;23.40;90.10;;;;;;5060539;28;20835;-78
2021/10/07 12:13:34;;;;;;;0.50;0.40;;;22.70;92.80;;;;;;5055789;28;20462;-77
2021/10/07 12:16:03;;;;;;;0.50;0.30;;;22.00;96.80;;;;;;5055034;28;20478;-77
2021/10/07 12:18:31;;;;;;;0.50;0.30;;;22.50;99.60;;;;;;5055840;28;20446;-77
2021/10/07 12:21:05;;;;;;;0.50;0.30;;;23.30;93.70;;;;;;5057519;28;20460;-78
2021/10/07 12:23:45;;;;;;;0.50;0.50;;;24.50;92.90;;;;;;5059570;28;20451;-79
2021/10/07 12:26:12;;;;;;;0.50;0.30;;;26.10;91.30;;;;;;5061037;28;20467;-78
2021/10/07 12:28:46;;;;;;;0.50;0.30;;;27.00;82.00;;;;;;5061427;28;20449;-78
2021/10/07 12:31:22;;;;;;;0.50;0.30;;;27.30;81.20;;;;;;5061785;28;20953;-78
2021/10/07 12:33:55;;;;;;;0.50;0.30;;;27.40;72.60;;;;;;5061814;28;20451;-78
2021/10/07 12:36:22;;;;;;;0.50;0.30;;;27.70;72.30;;;;;;5062311;28;20478;-78
2021/10/07 12:38:52;;;;;;;0.50;0.30;;;27.80;69.50;;;;;;5061111;28;20447;-79
2021/10/07 12:41:19;;;;;;;0.50;0.30;;;28.30;67.50;;;;;;5060640;28;20455;-77
2021/10/07 12:43:56;;;;;;;0.50;0.30;;;28.80;72.00;;;;;;5060019;28;20453;-78
2021/10/07 12:46:24;;;;;;;0.50;0.30;;;29.50;65.30;;;;;;5062481;28;20579;-77
2021/10/07 12:48:53;;;;;;;0.50;0.30;;;29.10;63.60;;;;;;5060202;28;20439;-76
2021/10/07 12:51:22;;;;;;;0.50;0.30;;;29.10;62.70;;;;;;5057413;28;20456;-79
2021/10/07 12:53:49;;;;;;;0.50;0.30;;;28.40;65.20;;;;;;5056716;28;20450;-78